createdAt,value
2023-11-01T00:01:13.400Z,4.38
2023-11-01T00:03:40.144Z,4.25
2023-11-01T00:06:07.090Z,4.10
2023-11-01T00:08:34.249Z,4.40
2023-11-01T00:11:01.092Z,4.50
2023-11-01T00:13:27.753Z,4.43
2023-11-01T00:15:54.242Z,4.35
2023-11-01T00:18:21.096Z,4.88
2023-11-01T00:20:47.998Z,3.92
2023-11-01T00:23:14.695Z,4.20
2023-11-01T00:25:42.294Z,3.92
2023-11-01T00:28:09.240Z,3.97
2023-11-01T00:30:36.508Z,3.40
2023-11-01T00:33:03.422Z,4.05
2023-11-01T00:35:31.338Z,3.55
2023-11-01T00:37:57.916Z,3.85
2023-11-01T00:40:25.086Z,3.58
2023-11-01T00:42:52.557Z,3.42
2023-11-01T00:45:19.769Z,3.47
2023-11-01T00:47:46.285Z,3.47
2023-11-01T00:50:12.872Z,3.30
2023-11-01T00:52:39.607Z,3.75
2023-11-01T00:55:08.954Z,3.90
2023-11-01T00:57:35.753Z,3.42
2023-11-01T01:00:02.316Z,3.33
2023-11-01T01:02:29.350Z,3.30
2023-11-01T01:04:55.825Z,3.60
2023-11-01T01:07:22.791Z,3.40
2023-11-01T01:09:49.901Z,3.70
2023-11-01T01:12:16.512Z,3.47
2023-11-01T01:14:43.357Z,3.85
2023-11-01T01:17:10.054Z,3.75
2023-11-01T01:19:37.153Z,3.58
2023-11-01T01:22:04.018Z,3.60
2023-11-01T01:24:30.562Z,3.55
2023-11-01T01:26:56.982Z,3.90
2023-11-01T01:29:23.476Z,3.30
2023-11-01T01:31:50.153Z,3.80
2023-11-01T01:34:16.882Z,3.45
2023-11-01T01:36:43.358Z,3.80
2023-11-01T01:39:10.511Z,3.60
2023-11-01T01:41:37.524Z,3.38
2023-11-01T01:44:04.391Z,3.47
2023-11-01T01:46:31.622Z,3.35
2023-11-01T01:48:58.895Z,3.70
2023-11-01T01:51:26.788Z,3.33
2023-11-01T01:53:53.376Z,3.53
2023-11-01T01:56:20.414Z,3.22
2023-11-01T01:58:48.272Z,3.67
2023-11-01T02:01:15.340Z,3.70
2023-11-01T02:03:42.216Z,3.83
2023-11-01T02:06:09.249Z,3.55
2023-11-01T02:08:37.415Z,3.90
2023-11-01T02:11:04.632Z,3.38
2023-11-01T02:13:31.631Z,3.55
2023-11-01T02:15:58.459Z,3.67
2023-11-01T02:18:25.265Z,4.50
2023-11-01T02:20:53.524Z,4.15
2023-11-01T02:23:31.678Z,3.83
2023-11-01T02:25:58.316Z,4.13
2023-11-01T02:28:25.120Z,4.10
2023-11-01T02:30:51.566Z,4.55
2023-11-01T02:33:18.032Z,4.07
2023-11-01T02:35:44.838Z,4.18
2023-11-01T02:38:12.668Z,4.35
2023-11-01T02:40:39.677Z,4.03
2023-11-01T02:43:06.515Z,4.45
2023-11-01T02:45:33.845Z,4.40
2023-11-01T02:48:01.085Z,4.88
2023-11-01T02:50:28.070Z,4.43
2023-11-01T02:52:54.870Z,4.20
2023-11-01T02:55:21.522Z,4.00
2023-11-01T02:57:48.154Z,4.63
2023-11-01T03:00:21.017Z,4.47
2023-11-01T03:02:48.746Z,4.40
2023-11-01T03:05:18.821Z,5.07
2023-11-01T03:07:46.164Z,5.45
2023-11-01T03:10:13.012Z,6.25
2023-11-01T03:12:40.131Z,6.28
2023-11-01T03:15:08.980Z,5.97
2023-11-01T03:17:36.577Z,8.23
2023-11-01T03:20:07.199Z,8.30
2023-11-01T03:22:34.305Z,8.35
2023-11-01T03:25:01.861Z,9.25
2023-11-01T03:27:28.824Z,9.90
2023-11-01T03:29:57.637Z,10.25
2023-11-01T03:32:24.533Z,11.13
2023-11-01T03:34:52.356Z,10.77
2023-11-01T03:37:18.859Z,10.77
2023-11-01T03:39:45.247Z,10.85
2023-11-01T03:42:11.686Z,9.82
2023-11-01T03:44:38.461Z,10.23
2023-11-01T03:47:05.500Z,10.57
2023-11-01T03:49:32.270Z,12.27
2023-11-01T03:51:59.264Z,11.68
2023-11-01T03:54:25.887Z,12.35
2023-11-01T03:56:52.604Z,12.65
2023-11-01T03:59:19.285Z,12.77
2023-11-01T04:01:45.975Z,12.35
2023-11-01T04:04:13.808Z,13.63
2023-11-01T04:06:40.446Z,13.77
2023-11-01T04:09:07.681Z,13.57
2023-11-01T04:11:34.496Z,14.35
2023-11-01T04:14:01.624Z,15.23
2023-11-01T04:16:30.040Z,16.23
2023-11-01T04:18:58.126Z,16.23
2023-11-01T04:21:24.934Z,17.10
2023-11-01T04:23:53.352Z,18.38
2023-11-01T04:26:22.938Z,17.55
2023-11-01T04:28:50.004Z,18.48
2023-11-01T04:31:17.417Z,19.63
2023-11-01T04:33:44.412Z,19.52
2023-11-01T04:36:11.306Z,18.25
2023-11-01T04:38:39.121Z,18.60
2023-11-01T04:41:12.457Z,18.60
2023-11-01T04:43:39.263Z,19.33
2023-11-01T04:46:06.608Z,18.38
2023-11-01T04:48:33.315Z,17.60
2023-11-01T04:51:01.680Z,17.50
2023-11-01T04:53:30.115Z,19.88
2023-11-01T04:55:56.652Z,20.38
2023-11-01T04:58:23.647Z,20.27
2023-11-01T05:00:50.843Z,18.75
2023-11-01T05:03:18.204Z,18.67
2023-11-01T05:05:46.341Z,18.20
2023-11-01T05:08:13.001Z,17.67
2023-11-01T05:10:39.592Z,17.60
2023-11-01T05:13:07.267Z,17.25
2023-11-01T05:15:38.085Z,17.60
2023-11-01T05:18:06.757Z,16.58
2023-11-01T05:20:33.637Z,16.70
2023-11-01T05:23:00.105Z,16.50
2023-11-01T05:25:30.088Z,15.82
2023-11-01T05:27:57.687Z,15.48
2023-11-01T05:30:24.775Z,15.68
2023-11-01T05:32:51.728Z,14.00
2023-11-01T05:35:18.684Z,14.20
2023-11-01T05:37:45.380Z,14.85
2023-11-01T05:40:14.990Z,14.18
2023-11-01T05:42:43.170Z,13.43
2023-11-01T05:45:09.906Z,12.80
2023-11-01T05:47:36.469Z,13.10
2023-11-01T05:50:09.202Z,12.82
2023-11-01T05:52:36.186Z,12.80
2023-11-01T05:55:11.199Z,12.60
2023-11-01T05:57:48.083Z,12.38
2023-11-01T06:00:15.020Z,12.18
2023-11-01T06:02:43.951Z,12.23
2023-11-01T06:05:10.561Z,14.13
2023-11-01T06:07:37.003Z,13.65
2023-11-01T06:10:05.023Z,15.52
2023-11-01T06:12:32.354Z,14.40
2023-11-01T06:14:58.909Z,14.40
2023-11-01T06:17:27.713Z,14.18
2023-11-01T06:19:54.270Z,13.80
2023-11-01T06:22:20.681Z,16.00
2023-11-01T06:24:47.283Z,15.75
2023-11-01T06:27:14.153Z,15.23
2023-11-01T06:29:43.442Z,14.82
2023-11-01T06:32:11.181Z,15.70
2023-11-01T06:34:38.352Z,15.85
2023-11-01T06:37:05.440Z,15.85
2023-11-01T06:39:32.028Z,16.23
2023-11-01T06:41:58.636Z,16.92
2023-11-01T06:44:27.603Z,16.60
2023-11-01T06:46:54.177Z,15.20
2023-11-01T06:49:20.736Z,15.55
2023-11-01T06:51:49.273Z,14.60
2023-11-01T06:54:15.732Z,14.52
2023-11-01T06:56:46.367Z,14.70
2023-11-01T06:59:13.688Z,14.63
2023-11-01T07:01:40.317Z,13.88
2023-11-01T07:04:07.273Z,14.18
2023-11-01T07:06:33.922Z,13.27
2023-11-01T07:09:00.679Z,13.52
2023-11-01T07:11:27.334Z,12.85
2023-11-01T07:13:53.776Z,11.82
2023-11-01T07:16:20.286Z,12.70
2023-11-01T07:18:47.296Z,11.70
2023-11-01T07:21:13.793Z,12.40
2023-11-01T07:23:40.540Z,11.90
2023-11-01T07:26:17.663Z,11.52
2023-11-01T07:28:44.990Z,11.68
2023-11-01T07:31:14.214Z,11.80
2023-11-01T07:33:41.996Z,10.88
2023-11-01T07:36:09.377Z,10.93
2023-11-01T07:38:36.096Z,10.60
2023-11-01T07:41:02.892Z,9.85
2023-11-01T07:43:29.489Z,9.20
2023-11-01T07:45:55.923Z,8.45
2023-11-01T07:48:23.793Z,7.63
2023-11-01T07:50:50.582Z,8.10
2023-11-01T07:53:17.147Z,7.90
2023-11-01T07:55:43.767Z,7.28
2023-11-01T07:58:10.364Z,6.28
2023-11-01T08:00:37.371Z,5.78
2023-11-01T08:03:04.445Z,5.55
2023-11-01T08:05:31.064Z,5.25
2023-11-01T08:07:57.476Z,4.45
2023-11-01T08:10:24.155Z,4.53
2023-11-01T08:12:50.753Z,4.60
2023-11-01T08:15:17.520Z,4.10
2023-11-01T08:17:47.289Z,3.30
2023-11-01T08:20:13.835Z,3.50
2023-11-01T08:22:40.580Z,3.53
2023-11-01T08:25:08.127Z,3.28
2023-11-01T08:27:36.645Z,3.00
2023-11-01T08:30:03.609Z,2.60
2023-11-01T08:32:30.368Z,2.75
2023-11-01T08:34:58.596Z,2.75
2023-11-01T08:37:25.492Z,2.75
2023-11-01T08:39:51.929Z,2.40
2023-11-01T08:42:18.875Z,2.70
2023-11-01T08:44:45.359Z,2.60
2023-11-01T08:47:31.845Z,2.78
2023-11-01T08:49:58.252Z,2.50
2023-11-01T08:52:25.993Z,2.80
2023-11-01T08:54:52.699Z,3.38
2023-11-01T08:57:23.388Z,2.72
2023-11-01T08:59:59.606Z,2.80
2023-11-01T09:02:27.834Z,2.75
2023-11-01T09:04:55.777Z,2.53
2023-11-01T09:07:23.257Z,2.85
2023-11-01T09:09:51.297Z,2.65
2023-11-01T09:12:18.487Z,3.60
2023-11-01T09:14:45.963Z,2.53
2023-11-01T09:17:15.065Z,3.00
2023-11-01T09:19:41.689Z,2.80
2023-11-01T09:22:09.454Z,2.67
2023-11-01T09:24:36.262Z,2.53
2023-11-01T09:27:08.105Z,2.50
2023-11-01T09:29:35.952Z,2.47
2023-11-01T09:32:02.609Z,2.67
2023-11-01T09:34:33.249Z,2.10
2023-11-01T09:36:59.843Z,2.13
2023-11-01T09:39:26.257Z,2.13
2023-11-01T09:42:00.500Z,2.45
2023-11-01T09:44:29.237Z,2.28
2023-11-01T09:46:56.636Z,2.08
2023-11-01T09:49:23.938Z,2.20
2023-11-01T09:51:50.725Z,2.33
2023-11-01T09:54:17.332Z,2.40
2023-11-01T09:56:45.182Z,2.03
2023-11-01T09:59:12.571Z,2.40
2023-11-01T10:01:40.008Z,2.67
2023-11-01T10:04:07.505Z,2.10
2023-11-01T10:06:34.770Z,2.38
2023-11-01T10:09:01.530Z,2.00
2023-11-01T10:11:31.179Z,2.22
2023-11-01T10:13:58.084Z,2.40
2023-11-01T10:16:24.605Z,2.17
2023-11-01T10:18:51.120Z,2.28
2023-11-01T10:21:17.585Z,2.35
2023-11-01T10:23:44.013Z,2.50
2023-11-01T10:26:10.836Z,2.85
2023-11-01T10:28:43.744Z,2.60
2023-11-01T10:31:13.571Z,1.92
2023-11-01T10:33:42.024Z,2.58
2023-11-01T10:36:09.364Z,2.20
2023-11-01T10:38:36.123Z,2.80
2023-11-01T10:41:03.404Z,2.85
2023-11-01T10:43:30.825Z,2.72
2023-11-01T10:45:58.768Z,2.55
2023-11-01T10:48:25.831Z,1.90
2023-11-01T10:50:54.086Z,1.80
2023-11-01T10:53:24.146Z,2.60
2023-11-01T10:55:52.148Z,2.47
2023-11-01T10:58:24.832Z,1.98
2023-11-01T11:01:03.294Z,2.58
2023-11-01T11:03:34.381Z,2.10
2023-11-01T11:06:06.272Z,1.75
2023-11-01T11:08:32.705Z,1.80
2023-11-01T11:11:15.977Z,1.88
2023-11-01T11:13:43.940Z,1.95
2023-11-01T11:16:14.250Z,1.80
2023-11-01T11:18:44.994Z,2.17
2023-11-01T11:21:33.145Z,1.92
2023-11-01T11:23:59.682Z,2.10
2023-11-01T11:26:39.516Z,2.25
2023-11-01T11:29:26.118Z,1.90
2023-11-01T11:31:59.176Z,1.92
2023-11-01T11:34:26.253Z,2.25
2023-11-01T11:37:12.906Z,1.95
2023-11-01T11:39:52.075Z,1.65
2023-11-01T11:42:39.735Z,2.00
2023-11-01T11:45:06.708Z,1.90
2023-11-01T11:47:33.258Z,1.80
2023-11-01T11:50:06.729Z,1.83
2023-11-01T11:52:33.200Z,1.67
2023-11-01T11:54:59.744Z,1.90
2023-11-01T11:57:31.380Z,2.00
2023-11-01T12:00:12.388Z,1.88
2023-11-01T12:02:39.141Z,1.67
2023-11-01T12:05:05.847Z,2.00
2023-11-01T12:07:32.438Z,1.92
2023-11-01T12:09:59.471Z,1.98
2023-11-01T12:12:26.228Z,2.17
2023-11-01T12:14:59.519Z,1.75
2023-11-01T12:17:27.088Z,1.95
2023-11-01T12:19:54.286Z,2.28
2023-11-01T12:22:21.943Z,2.00
2023-11-01T12:24:49.414Z,1.83
2023-11-01T12:27:18.449Z,1.98
2023-11-01T12:29:49.152Z,1.90
2023-11-01T12:32:39.652Z,1.63
2023-11-01T12:35:07.934Z,2.30
2023-11-01T12:37:36.110Z,2.00
2023-11-01T12:40:12.175Z,1.98
2023-11-01T12:42:42.635Z,1.52
2023-11-01T12:45:09.955Z,1.90
2023-11-01T12:47:44.280Z,1.40
2023-11-01T12:50:11.667Z,1.63
2023-11-01T12:52:39.998Z,1.60
2023-11-01T12:55:09.987Z,1.65
2023-11-01T12:57:37.685Z,1.23
2023-11-01T13:00:05.174Z,1.70
2023-11-01T13:02:32.856Z,1.40
2023-11-01T13:04:59.792Z,1.15
2023-11-01T13:07:26.860Z,1.40
2023-11-01T13:09:53.550Z,1.35
2023-11-01T13:12:20.067Z,1.38
2023-11-01T13:14:46.924Z,1.38
2023-11-01T13:17:13.662Z,1.33
2023-11-01T13:19:40.243Z,1.48
2023-11-01T13:22:06.953Z,1.65
2023-11-01T13:24:33.371Z,1.45
2023-11-01T13:27:04.816Z,1.33
2023-11-01T13:29:31.326Z,1.45
2023-11-01T13:31:57.708Z,1.27
2023-11-01T13:34:24.408Z,1.20
2023-11-01T13:36:51.439Z,1.30
2023-11-01T13:39:20.357Z,1.27
2023-11-01T13:41:46.987Z,1.60
2023-11-01T13:44:13.393Z,1.23
2023-11-01T13:46:39.904Z,1.30
2023-11-01T13:49:06.540Z,1.45
2023-11-01T13:51:33.220Z,1.23
2023-11-01T13:53:59.657Z,1.23
2023-11-01T13:56:26.197Z,1.13
2023-11-01T13:58:54.784Z,1.33
2023-11-01T14:01:21.711Z,1.20
2023-11-01T14:03:51.631Z,1.15
2023-11-01T14:06:23.150Z,1.50
2023-11-01T14:08:49.757Z,1.17
2023-11-01T14:11:17.038Z,1.27
2023-11-01T14:13:44.127Z,1.15
2023-11-01T14:16:11.421Z,1.40
2023-11-01T14:18:39.809Z,1.42
2023-11-01T14:21:07.834Z,1.58
2023-11-01T14:23:34.747Z,1.38
2023-11-01T14:26:01.514Z,1.42
2023-11-01T14:28:29.089Z,1.42
2023-11-01T14:30:57.925Z,1.10
2023-11-01T14:33:26.004Z,1.38
2023-11-01T14:35:53.104Z,1.48
2023-11-01T14:38:19.916Z,1.20
2023-11-01T14:40:46.679Z,1.17
2023-11-01T14:43:13.449Z,1.30
2023-11-01T14:45:40.353Z,1.35
2023-11-01T14:48:07.248Z,1.42
2023-11-01T14:50:33.808Z,1.38
2023-11-01T14:53:00.225Z,2.47
2023-11-01T14:55:26.564Z,2.83
2023-11-01T14:57:53.636Z,1.60
2023-11-01T15:00:20.794Z,1.67
2023-11-01T15:02:48.456Z,1.02
2023-11-01T15:05:15.167Z,1.15
2023-11-01T15:07:41.805Z,1.10
2023-11-01T15:10:09.171Z,1.40
2023-11-01T15:12:36.077Z,1.48
2023-11-01T15:15:02.862Z,1.45
2023-11-01T15:17:29.503Z,1.13
2023-11-01T15:19:56.937Z,1.10
2023-11-01T15:22:23.319Z,1.20
2023-11-01T15:24:51.018Z,1.30
2023-11-01T15:27:19.594Z,1.10
2023-11-01T15:29:49.683Z,1.30
2023-11-01T15:32:16.777Z,1.10
2023-11-01T15:34:44.219Z,1.20
2023-11-01T15:37:13.513Z,1.23
2023-11-01T15:39:40.294Z,1.42
2023-11-01T15:42:07.599Z,1.20
2023-11-01T15:44:34.015Z,1.30
2023-11-01T15:47:00.662Z,1.30
2023-11-01T15:49:27.510Z,1.02
2023-11-01T15:51:54.109Z,1.48
2023-11-01T15:54:20.948Z,1.02
2023-11-01T15:56:47.742Z,1.30
2023-11-01T15:59:14.303Z,1.13
2023-11-01T16:01:40.737Z,1.10
2023-11-01T16:04:07.673Z,1.20
2023-11-01T16:06:36.724Z,1.42
2023-11-01T16:09:05.532Z,1.10
2023-11-01T16:11:32.171Z,1.13
2023-11-01T16:13:58.565Z,1.23
2023-11-01T16:16:25.083Z,1.30
2023-11-01T16:18:51.704Z,1.33
2023-11-01T16:21:18.237Z,1.40
2023-11-01T16:23:44.982Z,1.20
2023-11-01T16:26:11.416Z,1.10
2023-11-01T16:28:38.190Z,1.05
2023-11-01T16:31:04.863Z,1.48
2023-11-01T16:33:31.494Z,1.27
2023-11-01T16:35:58.271Z,1.40
2023-11-01T16:38:26.258Z,1.00
2023-11-01T16:40:53.001Z,1.38
2023-11-01T16:43:19.504Z,1.40
2023-11-01T16:45:46.088Z,1.20
2023-11-01T16:48:12.645Z,1.25
2023-11-01T16:50:39.811Z,3.17
2023-11-01T16:53:06.752Z,1.23
2023-11-01T16:55:34.406Z,1.48
2023-11-01T16:58:02.688Z,1.40
2023-11-01T17:00:29.314Z,1.40
2023-11-01T17:02:56.302Z,1.48
2023-11-01T17:05:23.205Z,2.50
2023-11-01T17:07:50.307Z,2.85
2023-11-01T17:10:17.223Z,2.58
2023-11-01T17:12:44.084Z,2.95
2023-11-01T17:15:11.049Z,4.82
2023-11-01T17:17:41.527Z,5.93
2023-11-01T17:20:09.004Z,3.22
2023-11-01T17:22:45.042Z,2.70
2023-11-01T17:25:30.676Z,2.25
2023-11-01T17:27:57.106Z,2.05
2023-11-01T17:30:23.714Z,1.60
2023-11-01T17:32:50.428Z,1.48
2023-11-01T17:35:17.116Z,1.30
2023-11-01T17:37:50.327Z,2.50
2023-11-01T17:42:43.985Z,1.50
2023-11-01T17:45:11.034Z,1.70
2023-11-01T17:47:38.537Z,1.60
2023-11-01T17:50:07.383Z,3.00
2023-11-01T17:52:36.455Z,2.45
2023-11-01T17:55:08.060Z,2.25
2023-11-01T17:57:35.422Z,2.38
2023-11-01T18:00:02.614Z,1.60
2023-11-01T18:02:52.135Z,1.27
2023-11-01T18:05:38.066Z,1.73
2023-11-01T18:08:07.833Z,1.88
2023-11-01T18:10:45.461Z,1.70
2023-11-01T18:13:20.026Z,2.15
2023-11-01T18:15:47.505Z,1.48
2023-11-01T18:18:19.924Z,1.63
2023-11-01T18:20:46.678Z,1.60
2023-11-01T18:23:13.237Z,1.70
2023-11-01T18:26:05.335Z,2.00
2023-11-01T18:28:32.546Z,2.10
2023-11-01T18:31:00.025Z,5.28
2023-11-01T18:33:26.662Z,1.65
2023-11-01T18:35:53.348Z,1.75
2023-11-01T18:38:39.836Z,1.67
2023-11-01T18:41:06.426Z,1.83
2023-11-01T18:43:34.894Z,1.75
2023-11-01T18:46:04.664Z,1.88
2023-11-01T18:48:31.373Z,1.58
2023-11-01T18:50:57.916Z,1.67
2023-11-01T18:53:31.368Z,1.70
2023-11-01T18:55:58.151Z,1.40
2023-11-01T18:58:25.811Z,1.92
2023-11-01T19:00:54.121Z,1.20
2023-11-01T19:03:21.927Z,2.00
2023-11-01T19:05:48.631Z,1.45
2023-11-01T19:08:18.608Z,1.17
2023-11-01T19:10:45.156Z,1.20
2023-11-01T19:13:11.760Z,1.40
2023-11-01T19:15:38.350Z,1.20
2023-11-01T19:18:07.089Z,1.02
2023-11-01T19:20:33.906Z,1.10
2023-11-01T19:23:00.783Z,1.45
2023-11-01T19:25:27.294Z,5.57
2023-11-01T19:27:53.829Z,1.10
2023-11-01T19:30:22.967Z,1.40
2023-11-01T19:32:49.534Z,1.20
2023-11-01T19:35:16.030Z,1.40
2023-11-01T19:37:42.593Z,1.30
2023-11-01T19:40:10.252Z,2.15
2023-11-01T19:42:37.096Z,1.70
2023-11-01T19:45:05.035Z,1.70
2023-11-01T19:47:32.304Z,1.92
2023-11-01T19:50:02.108Z,1.63
2023-11-01T19:52:29.312Z,1.30
2023-11-01T19:54:56.058Z,1.90
2023-11-01T19:57:22.599Z,1.48
2023-11-01T19:59:50.798Z,1.63
2023-11-01T20:02:19.746Z,1.60
2023-11-01T20:04:46.472Z,1.23
2023-11-01T20:07:15.364Z,1.25
2023-11-01T20:09:41.932Z,1.20
2023-11-01T20:12:09.428Z,1.40
2023-11-01T20:14:37.623Z,1.50
2023-11-01T20:17:09.161Z,1.30
2023-11-01T20:19:35.709Z,1.20
2023-11-01T20:22:03.732Z,1.67
2023-11-01T20:24:30.713Z,1.80
2023-11-01T20:26:57.244Z,1.67
2023-11-01T20:29:24.009Z,1.58
2023-11-01T20:31:50.578Z,1.50
2023-11-01T20:34:17.580Z,2.17
2023-11-01T20:36:46.534Z,1.55
2023-11-01T20:39:13.220Z,2.30
2023-11-01T20:41:40.669Z,1.90
2023-11-01T20:44:07.593Z,1.33
2023-11-01T20:46:35.316Z,1.23
2023-11-01T20:49:02.119Z,1.20
2023-11-01T20:51:29.836Z,1.55
2023-11-01T20:53:58.577Z,1.30
2023-11-01T20:56:25.200Z,1.10
2023-11-01T20:58:51.870Z,0.90
2023-11-01T21:01:18.672Z,1.35
2023-11-01T21:03:46.168Z,1.30
2023-11-01T21:06:12.651Z,1.20
2023-11-01T21:08:40.359Z,1.17
2023-11-01T21:11:06.977Z,1.13
2023-11-01T21:13:33.812Z,1.40
2023-11-01T21:16:02.131Z,1.08
2023-11-01T21:18:32.426Z,1.20
2023-11-01T21:21:02.115Z,1.27
2023-11-01T21:23:29.463Z,1.10
2023-11-01T21:25:56.526Z,1.10
2023-11-01T21:28:23.386Z,0.98
2023-11-01T21:30:50.124Z,1.10
2023-11-01T21:33:21.921Z,1.20
2023-11-01T21:35:48.783Z,1.20
2023-11-01T21:38:17.401Z,1.17
2023-11-01T21:40:46.789Z,1.20
2023-11-01T21:43:18.301Z,1.13
2023-11-01T21:45:50.058Z,1.30
2023-11-01T21:48:24.720Z,1.20
2023-11-01T21:51:01.615Z,1.10
2023-11-01T21:53:29.822Z,1.10
2023-11-01T21:55:59.095Z,1.20
2023-11-01T21:58:31.954Z,1.10
2023-11-01T22:01:05.171Z,1.10
2023-11-01T22:03:40.991Z,1.30
2023-11-01T22:06:18.264Z,1.30
2023-11-01T22:08:51.426Z,1.20
2023-11-01T22:11:19.610Z,1.00
2023-11-01T22:13:48.411Z,1.15
2023-11-01T22:16:28.441Z,1.30
2023-11-01T22:18:56.338Z,1.35
2023-11-01T22:21:23.743Z,1.20
2023-11-01T22:23:50.810Z,1.33
2023-11-01T22:26:23.778Z,1.30
2023-11-01T22:28:51.586Z,1.45
2023-11-01T22:31:31.451Z,1.27
2023-11-01T22:33:58.122Z,1.38
2023-11-01T22:36:24.778Z,1.42
2023-11-01T22:38:55.820Z,1.27
2023-11-01T22:41:29.105Z,1.50
2023-11-01T22:43:55.579Z,1.40
2023-11-01T22:46:22.154Z,1.70
2023-11-01T22:48:48.727Z,2.33
2023-11-01T22:51:15.379Z,1.73
2023-11-01T22:53:41.945Z,1.58
2023-11-01T22:56:08.845Z,1.50
2023-11-01T22:58:35.242Z,1.70
2023-11-01T23:01:01.631Z,1.60
2023-11-01T23:03:28.222Z,1.50
2023-11-01T23:05:55.056Z,1.38
2023-11-01T23:08:21.708Z,1.50
2023-11-01T23:10:49.549Z,1.52
2023-11-01T23:13:16.850Z,1.50
2023-11-01T23:15:43.480Z,1.60
2023-11-01T23:18:10.156Z,1.30
2023-11-01T23:20:36.560Z,1.63
2023-11-01T23:23:03.075Z,1.75
2023-11-01T23:25:31.994Z,1.25
2023-11-01T23:28:02.374Z,1.40
2023-11-01T23:30:53.592Z,1.58
2023-11-01T23:33:21.504Z,1.65
2023-11-01T23:35:48.137Z,1.50
2023-11-01T23:38:15.889Z,1.67
2023-11-01T23:40:44.374Z,1.50
2023-11-01T23:43:11.772Z,1.67
2023-11-01T23:45:41.666Z,1.58
2023-11-01T23:48:10.340Z,1.70
2023-11-01T23:50:43.385Z,1.60
2023-11-01T23:53:13.944Z,2.03
2023-11-01T23:55:42.046Z,1.70
2023-11-01T23:58:09.534Z,1.95
